createdAt,value
2022-11-17T00:00:26.329Z,8.00
2022-11-17T00:02:54.471Z,8.00
2022-11-17T00:05:22.567Z,8.00
2022-11-17T00:07:51.021Z,8.00
2022-11-17T00:10:19.275Z,8.00
2022-11-17T00:13:06.465Z,8.10
2022-11-17T00:15:34.581Z,8.10
2022-11-17T00:18:21.210Z,8.10
2022-11-17T00:21:06.769Z,8.10
2022-11-17T00:23:48.122Z,8.10
2022-11-17T00:26:17.159Z,8.10
2022-11-17T00:28:46.468Z,8.10
2022-11-17T00:31:33.211Z,8.10
2022-11-17T00:34:07.916Z,8.10
2022-11-17T00:36:40.581Z,8.10
2022-11-17T00:39:09.252Z,8.10
2022-11-17T00:41:37.426Z,8.10
2022-11-17T00:44:07.679Z,8.10
2022-11-17T00:46:37.139Z,8.10
2022-11-17T00:49:05.663Z,8.10
2022-11-17T00:51:34.088Z,8.20
2022-11-17T00:54:02.605Z,8.20
2022-11-17T00:56:30.923Z,8.10
2022-11-17T00:58:59.158Z,8.10
2022-11-17T01:01:30.083Z,8.10
2022-11-17T01:04:04.034Z,8.10
2022-11-17T01:06:33.644Z,8.20
2022-11-17T01:09:02.086Z,8.20
2022-11-17T01:11:31.332Z,8.20
2022-11-17T01:14:01.519Z,8.20
2022-11-17T01:16:32.493Z,8.20
2022-11-17T01:19:02.501Z,8.20
2022-11-17T01:21:31.711Z,8.20
2022-11-17T01:24:01.817Z,8.20
2022-11-17T01:26:32.022Z,8.30
2022-11-17T01:29:01.056Z,8.30
2022-11-17T01:31:32.200Z,8.30
2022-11-17T01:34:00.249Z,8.30
2022-11-17T01:36:31.140Z,8.30
2022-11-17T01:38:59.112Z,8.30
2022-11-17T01:41:29.277Z,8.30
2022-11-17T01:43:58.940Z,8.30
2022-11-17T01:46:34.568Z,8.30
2022-11-17T01:49:12.695Z,8.30
2022-11-17T01:51:43.836Z,8.30
2022-11-17T01:54:13.554Z,8.20
2022-11-17T01:56:45.068Z,8.30
2022-11-17T01:59:20.585Z,8.30
2022-11-17T02:01:56.657Z,8.30
2022-11-17T02:04:26.936Z,8.30
2022-11-17T02:07:00.772Z,8.30
2022-11-17T02:09:29.256Z,8.40
2022-11-17T02:11:59.627Z,8.30
2022-11-17T02:14:27.586Z,8.40
2022-11-17T02:16:59.941Z,8.40
2022-11-17T02:19:34.916Z,8.40
2022-11-17T02:22:27.549Z,8.30
2022-11-17T02:25:13.045Z,8.30
2022-11-17T02:28:01.798Z,8.30
2022-11-17T02:30:35.550Z,8.20
2022-11-17T02:33:07.888Z,8.20
2022-11-17T02:35:41.857Z,8.20
2022-11-17T02:38:21.665Z,8.20
2022-11-17T02:40:53.174Z,8.20
2022-11-17T02:43:42.730Z,8.20
2022-11-17T02:46:15.134Z,8.10
2022-11-17T02:48:48.980Z,8.10
2022-11-17T02:51:20.909Z,8.10
2022-11-17T02:53:50.415Z,8.10
2022-11-17T02:56:18.364Z,8.10
2022-11-17T02:58:50.182Z,8.10
2022-11-17T03:01:33.623Z,8.10
2022-11-17T03:04:28.486Z,8.00
2022-11-17T03:07:09.296Z,8.00
2022-11-17T03:09:47.177Z,8.00
2022-11-17T03:12:23.143Z,7.90
2022-11-17T03:15:01.250Z,7.90
2022-11-17T03:17:33.620Z,7.90
2022-11-17T03:20:09.308Z,7.90
2022-11-17T03:22:44.764Z,7.90
2022-11-17T03:25:17.466Z,7.90
2022-11-17T03:27:49.089Z,7.90
2022-11-17T03:30:20.757Z,7.90
2022-11-17T03:32:53.908Z,7.90
2022-11-17T03:35:25.196Z,7.90
2022-11-17T03:37:56.555Z,7.90
2022-11-17T03:40:27.996Z,7.90
2022-11-17T03:42:59.978Z,7.90
2022-11-17T03:45:31.273Z,7.90
2022-11-17T03:48:04.395Z,7.90
2022-11-17T03:50:35.989Z,7.90
2022-11-17T03:53:06.006Z,7.90
2022-11-17T03:55:39.379Z,7.90
2022-11-17T03:58:12.266Z,7.90
2022-11-17T04:00:42.823Z,7.90
2022-11-17T04:03:10.760Z,7.90
2022-11-17T04:05:38.679Z,7.90
2022-11-17T04:08:06.831Z,7.90
2022-11-17T04:10:54.734Z,7.80
2022-11-17T04:13:40.040Z,7.80
2022-11-17T04:16:09.721Z,7.80
2022-11-17T04:18:37.670Z,7.80
2022-11-17T04:21:05.925Z,7.80
2022-11-17T04:23:34.114Z,7.70
2022-11-17T04:26:19.728Z,7.70
2022-11-17T04:28:49.543Z,7.70
2022-11-17T04:31:20.372Z,7.70
2022-11-17T04:33:50.146Z,7.70
2022-11-17T04:36:20.009Z,7.70
2022-11-17T04:38:49.721Z,7.70
2022-11-17T04:41:36.454Z,7.70
2022-11-17T04:44:05.783Z,7.80
2022-11-17T04:46:36.572Z,7.80
2022-11-17T04:49:05.756Z,7.80
2022-11-17T04:51:34.216Z,7.70
2022-11-17T04:54:03.280Z,7.70
2022-11-17T04:56:31.318Z,7.70
2022-11-17T04:58:59.333Z,7.70
2022-11-17T05:01:28.474Z,7.70
2022-11-17T05:03:59.688Z,7.70
2022-11-17T05:06:29.524Z,7.70
2022-11-17T05:08:58.075Z,7.70
2022-11-17T05:11:45.465Z,7.70
2022-11-17T05:14:14.809Z,7.70
2022-11-17T05:17:04.654Z,7.70
2022-11-17T05:19:39.570Z,7.70
2022-11-17T05:22:29.411Z,7.70
2022-11-17T05:24:56.852Z,7.70
2022-11-17T05:27:25.116Z,7.60
2022-11-17T05:29:53.165Z,7.70
2022-11-17T05:32:21.345Z,7.70
2022-11-17T05:34:50.684Z,7.80
2022-11-17T05:37:18.614Z,7.80
2022-11-17T05:39:46.530Z,7.80
2022-11-17T05:42:14.496Z,7.80
2022-11-17T05:44:42.482Z,7.80
2022-11-17T05:47:10.405Z,7.80
2022-11-17T05:49:38.356Z,7.80
2022-11-17T05:52:07.729Z,7.90
2022-11-17T05:54:35.665Z,7.90
2022-11-17T05:57:07.202Z,7.90
2022-11-17T05:59:40.345Z,7.90
2022-11-17T06:02:10.716Z,7.90
2022-11-17T06:04:39.922Z,7.90
2022-11-17T06:07:09.351Z,7.90
2022-11-17T06:09:41.164Z,8.00
2022-11-17T06:12:09.248Z,8.00
2022-11-17T06:14:39.117Z,8.00
2022-11-17T06:17:16.292Z,8.00
2022-11-17T06:19:50.279Z,8.00
2022-11-17T06:22:19.597Z,8.00
2022-11-17T06:24:47.775Z,8.00
2022-11-17T06:27:17.295Z,8.00
2022-11-17T06:29:46.871Z,8.00
2022-11-17T06:32:15.929Z,7.90
2022-11-17T06:34:49.128Z,7.90
2022-11-17T06:37:21.544Z,7.90
2022-11-17T06:39:49.493Z,7.90
2022-11-17T06:42:17.517Z,7.90
2022-11-17T06:44:45.428Z,7.90
2022-11-17T06:47:13.391Z,7.90
2022-11-17T06:49:41.413Z,7.90
2022-11-17T06:52:11.033Z,7.90
2022-11-17T06:54:40.309Z,7.90
2022-11-17T06:57:08.237Z,7.90
2022-11-17T06:59:36.164Z,7.90
2022-11-17T07:02:04.095Z,7.90
2022-11-17T07:04:32.054Z,8.00
2022-11-17T07:07:00.059Z,8.00
2022-11-17T07:09:27.971Z,8.00
2022-11-17T07:11:57.216Z,7.90
2022-11-17T07:14:25.132Z,7.90
2022-11-17T07:16:53.026Z,7.90
2022-11-17T07:19:20.948Z,7.90
2022-11-17T07:21:48.854Z,7.80
2022-11-17T07:24:16.774Z,7.80
2022-11-17T07:26:44.681Z,7.80
2022-11-17T07:29:13.951Z,7.80
2022-11-17T07:31:41.941Z,7.80
2022-11-17T07:34:10.132Z,7.80
2022-11-17T07:36:38.093Z,7.80
2022-11-17T07:39:06.583Z,7.80
2022-11-17T07:41:34.493Z,7.80
2022-11-17T07:44:02.490Z,7.80
2022-11-17T07:46:32.770Z,7.70
2022-11-17T07:49:00.753Z,7.70
2022-11-17T07:51:28.645Z,7.70
2022-11-17T07:53:56.597Z,7.60
2022-11-17T07:56:24.539Z,7.60
2022-11-17T07:58:54.816Z,7.60
2022-11-17T08:01:22.974Z,7.60
2022-11-17T08:03:52.381Z,7.60
2022-11-17T08:06:21.004Z,7.60
2022-11-17T08:08:49.702Z,7.60
2022-11-17T08:11:19.242Z,7.60
2022-11-17T08:13:47.965Z,7.60
2022-11-17T08:16:15.911Z,7.60
2022-11-17T08:18:50.553Z,7.60
2022-11-17T08:21:22.536Z,7.70
2022-11-17T08:23:52.083Z,7.70
2022-11-17T08:26:21.426Z,7.70
2022-11-17T08:28:53.692Z,7.70
2022-11-17T08:31:25.975Z,7.70
2022-11-17T08:33:53.957Z,7.80
2022-11-17T08:36:23.302Z,7.70
2022-11-17T08:38:51.250Z,7.80
2022-11-17T08:41:19.777Z,7.80
2022-11-17T08:43:47.818Z,7.80
2022-11-17T08:46:15.960Z,7.80
2022-11-17T08:48:43.974Z,7.90
2022-11-17T08:51:14.908Z,7.90
2022-11-17T08:53:44.327Z,7.90
2022-11-17T08:56:13.931Z,8.00
2022-11-17T08:58:42.893Z,8.00
2022-11-17T09:01:11.555Z,8.10
2022-11-17T09:03:39.797Z,8.10
2022-11-17T09:06:08.088Z,8.10
2022-11-17T09:08:45.600Z,8.10
2022-11-17T09:11:16.578Z,8.10
2022-11-17T09:13:45.692Z,8.20
2022-11-17T09:16:14.168Z,8.30
2022-11-17T09:18:42.519Z,8.30
2022-11-17T09:21:12.228Z,8.30
2022-11-17T09:23:40.453Z,8.40
2022-11-17T09:26:10.667Z,8.40
2022-11-17T09:28:40.407Z,8.40
2022-11-17T09:31:09.593Z,8.40
2022-11-17T09:33:38.677Z,8.40
2022-11-17T09:36:08.278Z,8.40
2022-11-17T09:38:36.779Z,8.50
2022-11-17T09:41:26.190Z,8.50
2022-11-17T09:44:06.609Z,8.50
2022-11-17T09:46:47.213Z,8.60
2022-11-17T09:49:21.664Z,8.70
2022-11-17T09:51:51.785Z,8.80
2022-11-17T09:54:27.364Z,8.90
2022-11-17T09:56:57.739Z,8.90
2022-11-17T09:59:30.947Z,9.00
2022-11-17T10:01:59.356Z,9.00
2022-11-17T10:04:30.333Z,8.90
2022-11-17T10:06:59.508Z,8.90
2022-11-17T10:09:36.241Z,8.90
2022-11-17T10:12:16.310Z,8.90
2022-11-17T10:14:46.708Z,8.90
2022-11-17T10:17:14.694Z,8.80
2022-11-17T10:19:43.893Z,8.80
2022-11-17T10:22:24.155Z,8.90
2022-11-17T10:24:55.378Z,8.90
2022-11-17T10:27:26.937Z,9.00
2022-11-17T10:30:05.089Z,9.10
2022-11-17T10:32:36.426Z,9.10
2022-11-17T10:35:15.840Z,9.10
2022-11-17T10:37:52.097Z,9.10
2022-11-17T10:40:25.326Z,9.10
2022-11-17T10:43:04.873Z,9.20
2022-11-17T10:45:34.863Z,9.40
2022-11-17T10:48:11.620Z,9.40
2022-11-17T10:50:51.878Z,9.60
2022-11-17T10:53:26.532Z,9.50
2022-11-17T10:55:57.733Z,9.60
2022-11-17T10:58:27.658Z,9.60
2022-11-17T11:00:58.825Z,9.70
2022-11-17T11:03:30.502Z,9.70
2022-11-17T11:06:22.380Z,9.60
2022-11-17T11:08:55.059Z,9.60
2022-11-17T11:11:37.856Z,9.60
2022-11-17T11:14:14.389Z,9.60
2022-11-17T11:16:48.142Z,9.50
2022-11-17T11:19:18.416Z,9.50
2022-11-17T11:22:09.826Z,9.60
2022-11-17T11:24:45.959Z,9.60
2022-11-17T11:27:29.361Z,9.70
2022-11-17T11:30:03.543Z,9.70
2022-11-17T11:32:41.175Z,9.70
2022-11-17T11:35:33.853Z,9.80
2022-11-17T11:38:15.989Z,9.80
2022-11-17T11:40:48.860Z,10.00
2022-11-17T11:43:27.101Z,10.10
2022-11-17T11:46:04.702Z,10.20
2022-11-17T11:48:35.017Z,10.20
2022-11-17T11:51:05.879Z,10.20
2022-11-17T11:53:42.217Z,10.20
2022-11-17T11:56:15.825Z,10.30
2022-11-17T11:58:48.819Z,10.40
2022-11-17T12:01:18.829Z,10.40
2022-11-17T12:03:55.578Z,10.50
2022-11-17T12:06:42.857Z,10.50
2022-11-17T12:09:25.198Z,10.50
2022-11-17T12:12:03.781Z,10.50
2022-11-17T12:14:33.878Z,10.50
2022-11-17T12:17:05.855Z,10.50
2022-11-17T12:19:57.095Z,10.50
2022-11-17T12:22:51.120Z,10.50
2022-11-17T12:25:20.787Z,10.50
2022-11-17T12:27:50.696Z,10.60
2022-11-17T12:30:53.659Z,10.60
2022-11-17T12:33:22.528Z,10.70
2022-11-17T12:36:31.552Z,10.70
2022-11-17T12:39:01.987Z,10.80
2022-11-17T12:42:04.810Z,11.00
2022-11-17T12:45:13.303Z,11.10
2022-11-17T12:47:44.167Z,11.20
2022-11-17T12:50:47.600Z,11.30
2022-11-17T12:53:31.144Z,11.40
2022-11-17T12:56:21.919Z,11.40
2022-11-17T12:59:16.685Z,11.40
2022-11-17T13:01:52.700Z,11.40
2022-11-17T13:04:29.600Z,11.40
2022-11-17T13:07:02.723Z,11.40
2022-11-17T13:09:33.867Z,11.30
2022-11-17T13:12:04.136Z,11.30
2022-11-17T13:14:32.735Z,11.30
2022-11-17T13:17:01.443Z,11.30
2022-11-17T13:19:36.207Z,11.40
2022-11-17T13:22:07.274Z,11.40
2022-11-17T13:24:38.540Z,11.40
2022-11-17T13:27:08.448Z,11.40
2022-11-17T13:29:36.722Z,11.40
2022-11-17T13:32:20.124Z,11.40
2022-11-17T13:34:50.029Z,11.40
2022-11-17T13:37:20.340Z,11.50
2022-11-17T13:40:01.108Z,11.50
2022-11-17T13:42:33.271Z,11.40
2022-11-17T13:45:03.966Z,11.50
2022-11-17T13:47:46.985Z,11.50
2022-11-17T13:50:39.901Z,11.50
2022-11-17T13:53:24.389Z,11.40
2022-11-17T13:55:54.327Z,11.40
2022-11-17T13:58:30.070Z,11.40
2022-11-17T14:00:59.896Z,11.40
2022-11-17T14:03:39.864Z,11.30
2022-11-17T14:06:10.422Z,11.30
2022-11-17T14:08:40.200Z,11.20
2022-11-17T14:11:16.449Z,11.20
2022-11-17T14:13:46.106Z,11.20
2022-11-17T14:16:35.664Z,11.10
2022-11-17T14:19:06.225Z,11.10
2022-11-17T14:21:34.194Z,11.10
2022-11-17T14:24:07.841Z,11.00
2022-11-17T14:26:42.620Z,11.00
2022-11-17T14:29:12.592Z,11.00
2022-11-17T14:31:40.625Z,11.00
2022-11-17T14:34:08.594Z,10.90
2022-11-17T14:36:37.507Z,10.90
2022-11-17T14:39:12.031Z,10.80
2022-11-17T14:41:41.937Z,10.80
2022-11-17T14:44:10.294Z,10.80
2022-11-17T14:46:38.599Z,10.70
2022-11-17T14:49:07.293Z,10.60
2022-11-17T14:51:35.764Z,10.50
2022-11-17T14:54:04.051Z,10.40
2022-11-17T14:56:32.223Z,10.30
2022-11-17T14:59:02.199Z,10.20
2022-11-17T15:01:32.626Z,10.10
2022-11-17T15:04:20.739Z,10.00
2022-11-17T15:06:50.780Z,10.00
2022-11-17T15:09:20.492Z,10.00
2022-11-17T15:11:48.774Z,9.90
2022-11-17T15:14:18.599Z,9.90
2022-11-17T15:16:46.825Z,9.90
2022-11-17T15:19:15.092Z,9.80
2022-11-17T15:21:43.161Z,9.80
2022-11-17T15:24:11.062Z,9.80
2022-11-17T15:26:39.240Z,9.70
2022-11-17T15:29:07.234Z,9.70
2022-11-17T15:31:36.687Z,9.60
2022-11-17T15:34:04.663Z,9.50
2022-11-17T15:36:32.912Z,9.40
2022-11-17T15:39:00.847Z,9.40
2022-11-17T15:41:32.822Z,9.40
2022-11-17T15:44:01.202Z,9.30
2022-11-17T15:46:29.269Z,9.30
2022-11-17T15:48:58.626Z,9.30
2022-11-17T15:51:28.338Z,9.30
2022-11-17T15:53:59.062Z,9.30
2022-11-17T15:56:28.304Z,9.20
2022-11-17T15:58:57.812Z,9.20
2022-11-17T16:01:29.847Z,9.20
2022-11-17T16:04:03.622Z,9.20
2022-11-17T16:06:33.449Z,9.10
2022-11-17T16:09:01.648Z,9.10
2022-11-17T16:11:29.711Z,9.00
2022-11-17T16:13:59.138Z,8.90
2022-11-17T16:16:29.160Z,8.90
2022-11-17T16:18:57.473Z,8.90
2022-11-17T16:21:26.989Z,8.90
2022-11-17T16:23:56.843Z,8.90
2022-11-17T16:26:26.450Z,8.90
2022-11-17T16:28:57.611Z,8.90
2022-11-17T16:31:28.348Z,8.90
2022-11-17T16:33:57.989Z,8.90
2022-11-17T16:36:35.853Z,8.90
2022-11-17T16:39:06.138Z,8.90
2022-11-17T16:41:36.154Z,8.90
2022-11-17T16:44:08.484Z,8.90
2022-11-17T16:46:36.528Z,8.80
2022-11-17T16:49:07.104Z,8.80
2022-11-17T16:51:36.730Z,8.80
2022-11-17T16:54:06.643Z,8.80
2022-11-17T16:56:35.529Z,8.80
2022-11-17T16:59:04.056Z,8.80
2022-11-17T17:01:34.737Z,8.80
2022-11-17T17:04:04.870Z,8.90
2022-11-17T17:06:33.069Z,8.90
2022-11-17T17:09:04.440Z,8.90
2022-11-17T17:11:33.307Z,8.80
2022-11-17T17:14:03.083Z,8.80
2022-11-17T17:16:32.642Z,8.70
2022-11-17T17:19:02.260Z,8.60
2022-11-17T17:21:31.177Z,8.50
2022-11-17T17:23:59.608Z,8.50
2022-11-17T17:26:30.988Z,8.40
2022-11-17T17:29:01.096Z,8.30
2022-11-17T17:31:33.759Z,8.20
2022-11-17T17:34:01.903Z,8.20
2022-11-17T17:36:30.460Z,8.10
2022-11-17T17:39:01.680Z,8.00
2022-11-17T17:41:32.462Z,7.90
2022-11-17T17:44:02.039Z,7.90
2022-11-17T17:46:31.625Z,7.80
2022-11-17T17:49:00.183Z,7.80
2022-11-17T17:51:29.754Z,7.80
2022-11-17T17:54:00.824Z,7.80
2022-11-17T17:56:31.400Z,7.80
2022-11-17T17:59:00.401Z,7.80
2022-11-17T18:01:29.910Z,7.80
2022-11-17T18:04:01.343Z,7.70
2022-11-17T18:06:29.429Z,7.80
2022-11-17T18:08:58.809Z,7.70
2022-11-17T18:11:27.252Z,7.70
2022-11-17T18:13:56.599Z,7.70
2022-11-17T18:16:26.710Z,7.70
2022-11-17T18:18:57.930Z,7.70
2022-11-17T18:21:26.592Z,7.70
2022-11-17T18:23:55.468Z,7.70
2022-11-17T18:26:25.077Z,7.70
2022-11-17T18:28:54.831Z,7.60
2022-11-17T18:31:26.476Z,7.50
2022-11-17T18:33:55.557Z,7.50
2022-11-17T18:36:23.972Z,7.50
2022-11-17T18:38:52.774Z,7.40
2022-11-17T18:41:22.347Z,7.40
2022-11-17T18:43:50.335Z,7.40
2022-11-17T18:46:19.895Z,7.50
2022-11-17T18:48:51.777Z,7.50
2022-11-17T18:51:21.915Z,7.50
2022-11-17T18:53:50.454Z,7.60
2022-11-17T18:56:21.906Z,7.50
2022-11-17T18:58:50.419Z,7.50
2022-11-17T19:01:20.032Z,7.50
2022-11-17T19:03:52.168Z,7.40
2022-11-17T19:06:21.463Z,7.40
2022-11-17T19:08:49.672Z,7.40
2022-11-17T19:11:19.611Z,7.40
2022-11-17T19:13:47.648Z,7.40
2022-11-17T19:16:17.468Z,7.40
2022-11-17T19:18:46.827Z,7.40
2022-11-17T19:21:17.440Z,7.40
2022-11-17T19:23:51.422Z,7.40
2022-11-17T19:26:21.395Z,7.40
2022-11-17T19:28:50.055Z,7.50
2022-11-17T19:31:19.220Z,7.50
2022-11-17T19:33:48.080Z,7.50
2022-11-17T19:36:19.402Z,7.60
2022-11-17T19:38:49.851Z,7.60
2022-11-17T19:41:20.215Z,7.60
2022-11-17T19:43:48.918Z,7.60
2022-11-17T19:46:17.959Z,7.60
2022-11-17T19:48:46.360Z,7.60
2022-11-17T19:51:18.528Z,7.60
2022-11-17T19:53:47.026Z,7.60
2022-11-17T19:56:15.368Z,7.50
2022-11-17T19:58:43.824Z,7.50
2022-11-17T20:01:13.934Z,7.50
2022-11-17T20:03:42.673Z,7.50
2022-11-17T20:06:11.532Z,7.50
2022-11-17T20:08:41.244Z,7.50
2022-11-17T20:11:12.300Z,7.50
2022-11-17T20:13:41.423Z,7.50
2022-11-17T20:16:13.998Z,7.50
2022-11-17T20:18:42.667Z,7.50
2022-11-17T20:21:14.055Z,7.50
2022-11-17T20:23:44.773Z,7.60
2022-11-17T20:26:15.032Z,7.50
2022-11-17T20:28:46.006Z,7.50
2022-11-17T20:31:16.594Z,7.50
2022-11-17T20:33:45.144Z,7.50
2022-11-17T20:36:15.349Z,7.50
2022-11-17T20:38:44.945Z,7.50
2022-11-17T20:41:13.027Z,7.50
2022-11-17T20:43:41.048Z,7.40
2022-11-17T20:46:10.243Z,7.50
2022-11-17T20:48:38.350Z,7.50
2022-11-17T20:51:08.180Z,7.50
2022-11-17T20:53:36.598Z,7.50
2022-11-17T20:56:08.121Z,7.50
2022-11-17T20:58:37.047Z,7.50
2022-11-17T21:01:09.441Z,7.50
2022-11-17T21:03:37.804Z,7.50
2022-11-17T21:06:06.360Z,7.50
2022-11-17T21:08:39.226Z,7.50
2022-11-17T21:11:10.552Z,7.50
2022-11-17T21:13:39.398Z,7.50
2022-11-17T21:16:10.599Z,7.50
2022-11-17T21:18:40.740Z,7.50
2022-11-17T21:21:09.659Z,7.40
2022-11-17T21:23:39.341Z,7.40
2022-11-17T21:26:12.925Z,7.30
2022-11-17T21:28:41.745Z,7.30
2022-11-17T21:31:13.243Z,7.30
2022-11-17T21:33:41.953Z,7.20
2022-11-17T21:36:11.985Z,7.20
2022-11-17T21:38:40.797Z,7.20
2022-11-17T21:41:12.706Z,7.30
2022-11-17T21:43:42.428Z,7.20
2022-11-17T21:46:13.196Z,7.20
2022-11-17T21:48:41.664Z,7.20
2022-11-17T21:51:16.182Z,7.20
2022-11-17T21:53:44.514Z,7.20
2022-11-17T21:56:14.479Z,7.20
2022-11-17T21:58:42.444Z,7.30
2022-11-17T22:01:12.164Z,7.30
2022-11-17T22:03:41.029Z,7.30
2022-11-17T22:06:11.003Z,7.30
2022-11-17T22:08:40.204Z,7.20
2022-11-17T22:11:09.662Z,7.20
2022-11-17T22:13:39.619Z,7.20
2022-11-17T22:16:10.943Z,7.20
2022-11-17T22:18:39.098Z,7.20
2022-11-17T22:21:10.144Z,7.20
2022-11-17T22:23:38.326Z,7.20
2022-11-17T22:26:07.295Z,7.20
2022-11-17T22:28:35.223Z,7.10
2022-11-17T22:31:07.962Z,7.10
2022-11-17T22:33:36.041Z,7.10
2022-11-17T22:36:04.144Z,7.20
2022-11-17T22:38:32.424Z,7.20
2022-11-17T22:41:01.403Z,7.20
2022-11-17T22:43:29.750Z,7.10
2022-11-17T22:45:58.210Z,7.10
2022-11-17T22:48:27.857Z,7.10
2022-11-17T22:50:58.832Z,7.20
2022-11-17T22:53:26.827Z,7.20
2022-11-17T22:55:55.350Z,7.20
2022-11-17T22:58:23.331Z,7.20
2022-11-17T23:00:52.963Z,7.20
2022-11-17T23:03:20.992Z,7.20
2022-11-17T23:05:50.281Z,7.20
2022-11-17T23:08:18.159Z,7.20
2022-11-17T23:10:46.128Z,7.30
2022-11-17T23:13:14.075Z,7.20
2022-11-17T23:15:41.962Z,7.30
2022-11-17T23:18:09.883Z,7.20
2022-11-17T23:20:38.300Z,7.20
2022-11-17T23:23:07.555Z,7.10
2022-11-17T23:25:35.498Z,7.20
2022-11-17T23:28:03.497Z,7.20
2022-11-17T23:30:31.495Z,7.20
2022-11-17T23:32:59.424Z,7.20
2022-11-17T23:35:27.798Z,7.20
2022-11-17T23:37:55.742Z,7.20
2022-11-17T23:40:25.029Z,7.20
2022-11-17T23:42:53.933Z,7.20
2022-11-17T23:45:21.821Z,7.20
2022-11-17T23:47:49.770Z,7.20
2022-11-17T23:50:18.488Z,7.20
2022-11-17T23:52:46.474Z,7.30
2022-11-17T23:55:14.431Z,7.30
2022-11-17T23:57:43.674Z,7.30
